Timeline UpdatesTrip UpdatesNews PostsPvt PostsTravel TipsAdmin PostsConv PostsFollowed PostsChat RequestsBlog PostsPNR Posts

Disclaimer
Search
 
 
Wed Jul 23, 2014 03:03:11 ISTHomeTrainsΣChainsAtlasPNRForumGalleryNewsFAQTripsMembersLoginFeedback
No Recent News for this Train
Other Trains in the News **new
Latest...
Temporarily Cancelled between Bandikui-Tundla from 1/11/13 to 15/12/13 due to power and traffic block between Agra City-Yamuna Bridge route
Mon Nov 25, 2013 (09:15AM)
⇐ Return Journey: Train# 54462

54461/Bandikui Bareilly Passenger (UnReserved)

Sep 12 2013 (12:56PM)
Change Departure Station:
Change Arrival Station:
Post a Train Travel TipPost a Train Travel Tip **new
Post a Comment/Question/Picture/VideoPost a Comment/Question/Picture/Video
Pantry/Catering
???
Loco/Rake Reversals
TDL/Tundla Junction (5);
RSA - Rake Sharing
Rake/Coach Composition
Loco
News    PNR    Forum    Time-Table    Availability    Fare Chart    Map    Arr/Dep History    Trips    Gallery    ΣChains    X/O    Timeline    
Travel Time: 4h 50m    24 halts    Distance: 162 km    Avg Speed: 33 km/hr
Type: Passenger
Zone: NR/Northern
Departs @ 14:50
Platform# ???
SMTWTFS
Bandikui Junction/BKI 
Arrives @ 19:40
Platform# ???
SMTWTFS
Kuberpur/KBP 

24 halts. 24 intermediate Stations between Bandikui Junction and Kuberpur

Show ALL intermediate Stations  Show Old Time-Table

#CodeStation NameX/OArrivesAvgDepartsAvgHaltPFDay#KmSpeedElevZoneAddress
1BKI»Bandikui Junction (6)»  -14:50---10.0101283mNWRBandikui, Rajasthan
2SHGNShri Ghasinagar (1)  14:59-15:00-1m1115.242263mNCRBandikui, Rajasthan
3BWBiwai (1)  15:06-15:07-1m1119.436256mNCRBandikui, Rajasthan
4BJRABhajera (1)  15:14-15:15-1m1123.510253mNCRMandawar, Rajasthan
5KPOKaranpura (1)X  15:20-15:21-1m1124.426252mNCRBandikui, Rajasthan
6BUDABhuda (1)  15:27-15:28-1m1127.049253mNCRKheril, Rajasthan
7MURDMandawar Mahwa Road (1)  15:34-15:35-1m1131.955242mNCRMandawar, Rajasthan
8GOSGhosrana (1)  15:43-15:44-1m1139.254230mNCRKheril, Rajasthan
9DTFDantla (1)  15:51-15:52-1m1145.648224mNCRDantia, Rajasthan
10KLKherli (1)  16:00-16:01-1m1152.054219mNCRKherli, Rajasthan
11TBLTarchhera Baraoliran (1)  16:10-16:11-1m1160.162210mNCRTalchherra, Rajasthan
12NBINadbai (1)  16:19-16:20-1m1168.347203mNCRNadbai, Rajasthan
13PPEAPaprera (1)  16:33-16:34-1m1178.556187mNCRNadbai, Rajasthan
14HKHelak (1)O  16:41-16:42-1m1185.059183mNCRBharatpur, Rajasthan
15BTEBharatpur Junction (5)  16:54-16:59-5m--196.850174mWCRBharatpur, Rajasthan
16NHBNoh Bachhamdi (1)  17:07-17:08-1m11103.556174mNCRBharatpur, Rajasthan
17IKIkran (1)X  17:14-17:15-1m11109.146171mNCRBharatpur, Rajasthan
18CIKChiksana (1)X  17:22-17:23-1m11114.449177mNCRBharatpur, Rajasthan
19AHAchhnera Junction (3)  17:35-17:40-5m--1124.247170mNCRAgra District, Uttar Pradesh
20RAIRaibha (1)  17:46-17:47-1m11128.854171mNCRBichpuri, Uttar Pradesh
21BCPBichpuri (1)XO  17:59-18:00-1m11139.716176mNCRAgra District, Uttar Pradesh
22IDHIdgah Agra Junction (3)X  18:31-18:33-2m--1148.06168mNCRAgra, Uttar Pradesh
23AFAgra Fort (3)XO  18:55-19:00-5m21150.28170mNCRRakabganj, Uttar Pradesh
24JABYamuna Bridge Agra (3)X  19:19-19:20-1m11152.631168mNCRAgra, Uttar Pradesh
25CHLRChhalesar (2)  19:31-19:32-1m--1158.431166mNCRDistrict Agra, Uttar Pradesh
26KBP•Kuberpur (2)•X  19:40-19:41-1m--1162.437170mNCRNational Highway 2, Uttar Pradesh
27ETUEEtmadpur (3)O  19:52-19:53-1m--1169.37166mNCREtmadpur, Uttar Pradesh
28TDLTundla Junction (5)X20:25-21:10-45m--1173.146167mNCRDistt.Firozabad, Uttar Pradesh
29MTIMitawali (1)  21:19-21:20-1m11179.968169mNCRMitawali, Uttar Pradesh
30BRNBarhan JunctionX  21:27-21:28-1m--1187.868173mNCRJN Point-Tundle/Aligarh/Etah, Uttar Pradesh
31CMRChamrola (1)X  21:34-21:35-1m11194.664174mNCRMDR 106W, Uttar Pradesh
32JLSJalesar Road (1)X  21:41-21:42-1m11201.073172mNCRMDR 106W, Uttar Pradesh
33PORAPora (2)XO  21:50-21:51-1m--1210.717179mNCRHathras, Uttar Pradesh
34HRSHathras Junction (3)X  22:28-22:30-2m--1221.122183mNCRMahamaya Nagar(05722-242803), Uttar Pradesh
35SNSSasni (3)  22:54-22:55-1m--1230.023185mNCRSasni, Uttar Pradesh
36MXKMandrak (2)X  23:14-23:15-1m--1237.429190mNCRNational Highway 93, Uttar Pradesh
37DAQDaud Khan (3)X  23:29-23:30-1m--1244.228189mNCRNational Highway 91, Uttar Pradesh
38ALJNAligarh Junction (4)  23:45-23:55-10m31251.241192mNCRAligarh, Uttar Pradesh
39MZGIManzurgarhi (2)O  00:08-00:10-2m--2260.233188mNCRAligarh, Uttar Pradesh
40HGJHarduaganj (1)O  00:18-00:20-2m12264.662195mNCRAligarh, Uttar Pradesh
41AURAtrauli Road (1)O  00:35-00:37-2m12280.255190mNRDibai, Uttar Pradesh
42DIBDibai (2)O  00:51-00:53-2m--2293.142190mNRDibai, Uttar Pradesh
43RGRajghat Narora (1)XO  01:03-01:05-2m12300.019191mNRBabrala, Uttar Pradesh
44BBABabrala (1)  01:24-01:27-3m12305.952186mNRBabrala, Uttar Pradesh
45BJBahjoi  01:58-02:00-2m--2332.733194mNRBahjoi, Uttar Pradesh
46CHChandausi Junction (3)O  02:30-03:15-45m--2349.432193mNRChandausi, Uttar Pradesh
47AFRAsafpur  03:41-03:43-2m--2363.142186mNRDist. Badaun, Uttar Pradesh
48DUBDabtara (2)  03:58-04:00-2m22373.640183mNRBisauli, Uttar Pradesh
49KEGKarengi  04:08-04:10-2m--2378.947183mNRKarengi, Uttar Pradesh
50RBKReoti B Khera (1)  04:19-04:20-1m12385.949177mNRReoti B Khera, Uttar Pradesh
51AOAonlaX  04:27-04:32-5m--2391.633176mNRDist. Bareilly, Uttar Pradesh
52NSUNisui  04:44-04:46-2m--2398.240167mNRAonla- Bareilly Link Rd, Uttar Pradesh
53BTGBasharatGanj  04:53-04:55-2m--2402.942167mNRBareilly, Uttar Pradesh
54RGBRamganga  05:08-05:10-2m--2412.06170mNRState Highway 33, Uttar Pradesh
55BEBareilly Junction (4)  06:20--32418.5-174mNRBareilly, Uttar Pradesh
Scroll to Top
Scroll to Bottom